sensor_id;sensor_type;location;lat;lon;timestamp;pressure;altitude;pressure_sealevel;temperature;humidity
53262;BME280;39658;51.090;-1.786;2023-05-09T00:00:52;100984.44;;;11.57;100.00
53262;BME280;39658;51.090;-1.786;2023-05-09T00:03:18;100982.66;;;11.57;100.00
53262;BME280;39658;51.090;-1.786;2023-05-09T00:05:45;100973.88;;;11.57;100.00
53262;BME280;39658;51.090;-1.786;2023-05-09T00:08:13;100968.41;;;11.60;100.00
53262;BME280;39658;51.090;-1.786;2023-05-09T00:10:40;100969.25;;;11.60;100.00
53262;BME280;39658;51.090;-1.786;2023-05-09T00:13:08;100961.53;;;11.57;100.00
53262;BME280;39658;51.090;-1.786;2023-05-09T00:15:35;100956.34;;;11.56;100.00
53262;BME280;39658;51.090;-1.786;2023-05-09T00:18:02;100956.44;;;11.54;100.00
53262;BME280;39658;51.090;-1.786;2023-05-09T00:20:29;100962.69;;;11.53;100.00
53262;BME280;39658;51.090;-1.786;2023-05-09T00:22:58;100961.81;;;11.53;100.00
53262;BME280;39658;51.090;-1.786;2023-05-09T00:25:25;100948.72;;;11.51;100.00
53262;BME280;39658;51.090;-1.786;2023-05-09T00:27:52;100944.31;;;11.52;100.00
53262;BME280;39658;51.090;-1.786;2023-05-09T00:30:20;100947.06;;;11.50;100.00
53262;BME280;39658;51.090;-1.786;2023-05-09T00:32:47;100951.56;;;11.48;100.00
53262;BME280;39658;51.090;-1.786;2023-05-09T00:35:13;100950.63;;;11.49;100.00
53262;BME280;39658;51.090;-1.786;2023-05-09T00:37:40;100949.78;;;11.48;100.00
53262;BME280;39658;51.090;-1.786;2023-05-09T00:40:07;100949.78;;;11.48;100.00
53262;BME280;39658;51.090;-1.786;2023-05-09T00:42:35;100955.06;;;11.48;100.00
53262;BME280;39658;51.090;-1.786;2023-05-09T00:45:02;100955.06;;;11.48;100.00
53262;BME280;39658;51.090;-1.786;2023-05-09T00:47:30;100959.50;;;11.48;100.00
53262;BME280;39658;51.090;-1.786;2023-05-09T00:49:57;100958.66;;;11.47;100.00
53262;BME280;39658;51.090;-1.786;2023-05-09T00:52:24;100961.41;;;11.46;100.00
53262;BME280;39658;51.090;-1.786;2023-05-09T00:54:52;100960.66;;;11.44;100.00
53262;BME280;39658;51.090;-1.786;2023-05-09T00:57:19;100960.75;;;11.42;100.00
53262;BME280;39658;51.090;-1.786;2023-05-09T00:59:46;100963.50;;;11.41;100.00
53262;BME280;39658;51.090;-1.786;2023-05-09T01:02:13;100949.44;;;11.40;100.00
53262;BME280;39658;51.090;-1.786;2023-05-09T01:04:42;100952.16;;;11.39;100.00
53262;BME280;39658;51.090;-1.786;2023-05-09T01:07:15;100948.78;;;11.37;100.00
53262;BME280;39658;51.090;-1.786;2023-05-09T01:09:51;100936.63;;;11.34;100.00
53262;BME280;39658;51.090;-1.786;2023-05-09T01:12:28;100945.41;;;11.35;100.00
53262;BME280;39658;51.090;-1.786;2023-05-09T01:15:01;100938.44;;;11.34;100.00
53262;BME280;39658;51.090;-1.786;2023-05-09T01:17:37;100941.09;;;11.34;100.00
53262;BME280;39658;51.090;-1.786;2023-05-09T01:20:13;100934.31;;;11.29;100.00
53262;BME280;39658;51.090;-1.786;2023-05-09T01:22:45;100944.03;;;11.29;100.00
53262;BME280;39658;51.090;-1.786;2023-05-09T01:25:40;100942.34;;;11.28;100.00
53262;BME280;39658;51.090;-1.786;2023-05-09T01:28:16;100939.81;;;11.26;100.00
53262;BME280;39658;51.090;-1.786;2023-05-09T01:30:46;100938.09;;;11.25;100.00
53262;BME280;39658;51.090;-1.786;2023-05-09T01:33:17;100940.84;;;11.24;100.00
53262;BME280;39658;51.090;-1.786;2023-05-09T01:35:49;100942.56;;;11.25;100.00
53262;BME280;39658;51.090;-1.786;2023-05-09T01:38:19;100936.50;;;11.23;100.00
53262;BME280;39658;51.090;-1.786;2023-05-09T01:40:50;100935.66;;;11.22;100.00
53262;BME280;39658;51.090;-1.786;2023-05-09T01:43:19;100932.00;;;11.25;100.00
53262;BME280;39658;51.090;-1.786;2023-05-09T01:45:48;100931.03;;;11.26;100.00
53262;BME280;39658;51.090;-1.786;2023-05-09T01:48:17;100917.72;;;11.27;100.00
53262;BME280;39658;51.090;-1.786;2023-05-09T01:50:45;100915.94;;;11.28;100.00
53262;BME280;39658;51.090;-1.786;2023-05-09T01:53:16;100914.97;;;11.29;100.00
53262;BME280;39658;51.090;-1.786;2023-05-09T01:55:44;100912.34;;;11.29;100.00
53262;BME280;39658;51.090;-1.786;2023-05-09T01:58:13;100916.78;;;11.28;100.00
53262;BME280;39658;51.090;-1.786;2023-05-09T02:00:41;100915.09;;;11.27;100.00
53262;BME280;39658;51.090;-1.786;2023-05-09T02:03:10;100917.81;;;11.26;100.00
53262;BME280;39658;51.090;-1.786;2023-05-09T02:05:38;100908.97;;;11.27;100.00
53262;BME280;39658;51.090;-1.786;2023-05-09T02:08:07;100909.19;;;11.24;100.00
53262;BME280;39658;51.090;-1.786;2023-05-09T02:10:35;100904.28;;;11.18;100.00
53262;BME280;39658;51.090;-1.786;2023-05-09T02:13:02;100902.06;;;11.11;100.00
53262;BME280;39658;51.090;-1.786;2023-05-09T02:15:29;100907.63;;;11.07;100.00
53262;BME280;39658;51.090;-1.786;2023-05-09T02:17:56;100908.47;;;11.07;100.00
53262;BME280;39658;51.090;-1.786;2023-05-09T02:20:24;100903.75;;;11.12;100.00
53262;BME280;39658;51.090;-1.786;2023-05-09T02:22:51;100900.81;;;11.17;100.00
53262;BME280;39658;51.090;-1.786;2023-05-09T02:25:18;100902.41;;;11.20;100.00
53262;BME280;39658;51.090;-1.786;2023-05-09T02:27:45;100906.84;;;11.19;100.00
53262;BME280;39658;51.090;-1.786;2023-05-09T02:30:18;100912.94;;;11.20;100.00
53262;BME280;39658;51.090;-1.786;2023-05-09T02:32:49;100914.75;;;11.19;100.00
53262;BME280;39658;51.090;-1.786;2023-05-09T02:35:17;100901.84;;;11.14;100.00
53262;BME280;39658;51.090;-1.786;2023-05-09T02:37:46;100913.16;;;11.17;100.00
53262;BME280;39658;51.090;-1.786;2023-05-09T02:40:13;100918.63;;;11.13;100.00
53262;BME280;39658;51.090;-1.786;2023-05-09T02:42:40;100910.72;;;11.13;100.00
53262;BME280;39658;51.090;-1.786;2023-05-09T02:45:08;100907.97;;;11.15;100.00
53262;BME280;39658;51.090;-1.786;2023-05-09T02:47:36;100910.72;;;11.13;100.00
53262;BME280;39658;51.090;-1.786;2023-05-09T02:50:03;100902.78;;;11.13;100.00
53262;BME280;39658;51.090;-1.786;2023-05-09T02:52:30;100908.94;;;11.14;100.00
53262;BME280;39658;51.090;-1.786;2023-05-09T02:54:58;100897.50;;;11.13;100.00
53262;BME280;39658;51.090;-1.786;2023-05-09T02:57:25;100907.13;;;11.14;100.00
53262;BME280;39658;51.090;-1.786;2023-05-09T02:59:51;100901.84;;;11.14;100.00
53262;BME280;39658;51.090;-1.786;2023-05-09T03:02:18;100902.78;;;11.13;100.00
53262;BME280;39658;51.090;-1.786;2023-05-09T03:04:45;100902.16;;;11.10;100.00
53262;BME280;39658;51.090;-1.786;2023-05-09T03:07:12;100907.44;;;11.10;100.00
53262;BME280;39658;51.090;-1.786;2023-05-09T03:09:38;100905.94;;;11.06;100.00
53262;BME280;39658;51.090;-1.786;2023-05-09T03:12:07;100905.19;;;11.04;100.00
53262;BME280;39658;51.090;-1.786;2023-05-09T03:14:33;100910.69;;;11.01;100.00
53262;BME280;39658;51.090;-1.786;2023-05-09T03:17:00;100899.47;;;10.97;100.00
53262;BME280;39658;51.090;-1.786;2023-05-09T03:19:27;100899.78;;;10.92;100.00
53262;BME280;39658;51.090;-1.786;2023-05-09T03:21:54;100891.28;;;10.87;100.00
53262;BME280;39658;51.090;-1.786;2023-05-09T03:24:21;100894.22;;;10.83;100.00
53262;BME280;39658;51.090;-1.786;2023-05-09T03:26:48;100893.88;;;10.74;100.00
53262;BME280;39658;51.090;-1.786;2023-05-09T03:29:16;100883.09;;;10.65;100.00
53262;BME280;39658;51.090;-1.786;2023-05-09T03:31:42;100885.44;;;10.55;100.00
53262;BME280;39658;51.090;-1.786;2023-05-09T03:34:10;100889.72;;;10.43;100.00
53262;BME280;39658;51.090;-1.786;2023-05-09T03:36:39;100883.31;;;10.33;100.00
53262;BME280;39658;51.090;-1.786;2023-05-09T03:39:06;100888.19;;;10.24;100.00
53262;BME280;39658;51.090;-1.786;2023-05-09T03:41:34;100896.66;;;10.15;100.00
53262;BME280;39658;51.090;-1.786;2023-05-09T03:44:01;100889.97;;;10.10;100.00
53262;BME280;39658;51.090;-1.786;2023-05-09T03:46:29;100890.16;;;10.06;100.00
53262;BME280;39658;51.090;-1.786;2023-05-09T03:48:56;100889.69;;;10.00;100.00
53262;BME280;39658;51.090;-1.786;2023-05-09T03:51:23;100895.44;;;9.92;100.00
53262;BME280;39658;51.090;-1.786;2023-05-09T03:53:50;100898.25;;;9.89;100.00
53262;BME280;39658;51.090;-1.786;2023-05-09T03:56:16;100897.69;;;9.98;100.00
53262;BME280;39658;51.090;-1.786;2023-05-09T03:58:43;100896.84;;;10.12;100.00
53262;BME280;39658;51.090;-1.786;2023-05-09T04:01:10;100896.19;;;10.23;100.00
53262;BME280;39658;51.090;-1.786;2023-05-09T04:03:38;100886.50;;;10.23;100.00
53262;BME280;39658;51.090;-1.786;2023-05-09T04:06:05;100883.84;;;10.23;100.00
53262;BME280;39658;51.090;-1.786;2023-05-09T04:08:32;100891.94;;;10.20;100.00
53262;BME280;39658;51.090;-1.786;2023-05-09T04:10:59;100888.47;;;10.20;100.00
53262;BME280;39658;51.090;-1.786;2023-05-09T04:13:26;100883.22;;;10.20;100.00
53262;BME280;39658;51.090;-1.786;2023-05-09T04:15:54;100883.31;;;10.18;100.00
53262;BME280;39658;51.090;-1.786;2023-05-09T04:18:21;100892.22;;;10.16;100.00
53262;BME280;39658;51.090;-1.786;2023-05-09T04:20:49;100890.56;;;10.15;100.00
53262;BME280;39658;51.090;-1.786;2023-05-09T04:23:15;100895.91;;;10.13;100.00
53262;BME280;39658;51.090;-1.786;2023-05-09T04:25:42;100891.31;;;10.17;100.00
53262;BME280;39658;51.090;-1.786;2023-05-09T04:28:09;100879.16;;;10.29;100.00
53262;BME280;39658;51.090;-1.786;2023-05-09T04:30:36;100864.88;;;10.33;100.00
53262;BME280;39658;51.090;-1.786;2023-05-09T04:33:03;100864.66;;;10.36;100.00
53262;BME280;39658;51.090;-1.786;2023-05-09T04:35:29;100859.31;;;10.37;100.00
53262;BME280;39658;51.090;-1.786;2023-05-09T04:37:58;100850.28;;;10.41;100.00
53262;BME280;39658;51.090;-1.786;2023-05-09T04:40:25;100844.06;;;10.43;100.00
53262;BME280;39658;51.090;-1.786;2023-05-09T04:42:51;100848.38;;;10.44;100.00
53262;BME280;39658;51.090;-1.786;2023-05-09T04:45:18;100851.88;;;10.44;100.00
53262;BME280;39658;51.090;-1.786;2023-05-09T04:47:45;100842.81;;;10.48;100.00
53262;BME280;39658;51.090;-1.786;2023-05-09T04:50:12;100839.97;;;10.51;100.00
53262;BME280;39658;51.090;-1.786;2023-05-09T04:52:39;100836.41;;;10.52;100.00
53262;BME280;39658;51.090;-1.786;2023-05-09T04:55:08;100825.88;;;10.52;100.00
53262;BME280;39658;51.090;-1.786;2023-05-09T04:57:34;100830.22;;;10.53;100.00
53262;BME280;39658;51.090;-1.786;2023-05-09T05:00:01;100818.88;;;10.51;100.00
53262;BME280;39658;51.090;-1.786;2023-05-09T05:02:31;100824.16;;;10.51;100.00
53262;BME280;39658;51.090;-1.786;2023-05-09T05:04:58;100828.59;;;10.51;100.00
53262;BME280;39658;51.090;-1.786;2023-05-09T05:07:24;100828.78;;;10.48;100.00
53262;BME280;39658;51.090;-1.786;2023-05-09T05:09:51;100827.09;;;10.47;100.00
53262;BME280;39658;51.090;-1.786;2023-05-09T05:12:19;100827.75;;;10.50;100.00
53262;BME280;39658;51.090;-1.786;2023-05-09T05:14:46;100829.88;;;10.58;100.00
53262;BME280;39658;51.090;-1.786;2023-05-09T05:17:13;100826.22;;;10.60;100.00
53262;BME280;39658;51.090;-1.786;2023-05-09T05:19:41;100827.03;;;10.61;100.00
53262;BME280;39658;51.090;-1.786;2023-05-09T05:22:08;100834.84;;;10.63;100.00
53262;BME280;39658;51.090;-1.786;2023-05-09T05:24:34;100817.06;;;10.66;100.00
53262;BME280;39658;51.090;-1.786;2023-05-09T05:27:01;100818.53;;;10.70;100.00
53262;BME280;39658;51.090;-1.786;2023-05-09T05:29:29;100818.34;;;10.73;100.00
53262;BME280;39658;51.090;-1.786;2023-05-09T05:31:56;100825.53;;;10.71;100.00
53262;BME280;39658;51.090;-1.786;2023-05-09T05:34:23;100825.22;;;10.76;100.00
53262;BME280;39658;51.090;-1.786;2023-05-09T05:36:50;100837.47;;;10.77;100.00
53262;BME280;39658;51.090;-1.786;2023-05-09T05:39:17;100842.66;;;10.78;100.00
53262;BME280;39658;51.090;-1.786;2023-05-09T05:41:43;100843.28;;;10.82;100.00
53262;BME280;39658;51.090;-1.786;2023-05-09T05:44:10;100844.97;;;10.83;100.00
53262;BME280;39658;51.090;-1.786;2023-05-09T05:46:38;100844.69;;;10.88;100.00
53262;BME280;39658;51.090;-1.786;2023-05-09T05:49:05;100846.25;;;10.90;100.00
53262;BME280;39658;51.090;-1.786;2023-05-09T05:51:32;100846.91;;;10.94;100.00
53262;BME280;39658;51.090;-1.786;2023-05-09T05:53:58;100851.22;;;10.95;100.00
53262;BME280;39658;51.090;-1.786;2023-05-09T05:56:25;100848.41;;;10.98;100.00
53262;BME280;39658;51.090;-1.786;2023-05-09T05:58:52;100851.13;;;10.96;100.00
53262;BME280;39658;51.090;-1.786;2023-05-09T06:01:19;100846.91;;;10.94;100.00
53262;BME280;39658;51.090;-1.786;2023-05-09T06:03:47;100852.84;;;10.98;100.00
53262;BME280;39658;51.090;-1.786;2023-05-09T06:06:19;100852.44;;;11.04;100.00
53262;BME280;39658;51.090;-1.786;2023-05-09T06:08:46;100855.81;;;11.06;100.00
53262;BME280;39658;51.090;-1.786;2023-05-09T06:11:14;100859.50;;;11.03;100.00
53262;BME280;39658;51.090;-1.786;2023-05-09T06:13:41;100863.72;;;11.06;100.00
53262;BME280;39658;51.090;-1.786;2023-05-09T06:16:07;100853.94;;;11.08;100.00
53262;BME280;39658;51.090;-1.786;2023-05-09T06:18:34;100853.44;;;11.16;100.00
53262;BME280;39658;51.090;-1.786;2023-05-09T06:21:06;100851.41;;;11.19;100.00
53262;BME280;39658;51.090;-1.786;2023-05-09T06:23:33;100856.69;;;11.19;100.00
53262;BME280;39658;51.090;-1.786;2023-05-09T06:26:01;100849.31;;;11.24;100.00
53262;BME280;39658;51.090;-1.786;2023-05-09T06:28:28;100836.31;;;11.34;100.00
53262;BME280;39658;51.090;-1.786;2023-05-09T06:30:55;100843.72;;;11.42;100.00
53262;BME280;39658;51.090;-1.786;2023-05-09T06:33:22;100839.31;;;11.42;100.00
53262;BME280;39658;51.090;-1.786;2023-05-09T06:35:48;100838.03;;;11.35;100.00
53262;BME280;39658;51.090;-1.786;2023-05-09T06:38:16;100839.22;;;11.44;100.00
53262;BME280;39658;51.090;-1.786;2023-05-09T06:40:43;100843.09;;;11.51;100.00
53262;BME280;39658;51.090;-1.786;2023-05-09T06:43:10;100838.69;;;11.64;100.00
53262;BME280;39658;51.090;-1.786;2023-05-09T06:45:37;100842.91;;;11.80;100.00
53262;BME280;39658;51.090;-1.786;2023-05-09T06:48:04;100849.03;;;11.80;100.00
53262;BME280;39658;51.090;-1.786;2023-05-09T06:50:31;100849.25;;;11.90;100.00
53262;BME280;39658;51.090;-1.786;2023-05-09T06:52:58;100850.31;;;12.00;100.00
53262;BME280;39658;51.090;-1.786;2023-05-09T06:55:26;100853.25;;;12.09;100.00
53262;BME280;39658;51.090;-1.786;2023-05-09T06:57:52;100850.91;;;12.30;100.00
53262;BME280;39658;51.090;-1.786;2023-05-09T07:00:20;100848.94;;;12.57;100.00
53262;BME280;39658;51.090;-1.786;2023-05-09T07:02:47;100856.03;;;12.57;100.00
53262;BME280;39658;51.090;-1.786;2023-05-09T07:05:14;100846.06;;;12.61;100.00
53262;BME280;39658;51.090;-1.786;2023-05-09T07:07:41;100856.59;;;12.73;100.00
53262;BME280;39658;51.090;-1.786;2023-05-09T07:10:08;100852.22;;;12.85;100.00
53262;BME280;39658;51.090;-1.786;2023-05-09T07:12:37;100844.06;;;12.88;100.00
53262;BME280;39658;51.090;-1.786;2023-05-09T07:15:04;100859.63;;;12.80;100.00
53262;BME280;39658;51.090;-1.786;2023-05-09T07:17:31;100860.31;;;12.95;100.00
53262;BME280;39658;51.090;-1.786;2023-05-09T07:19:58;100853.34;;;13.29;100.00
53262;BME280;39658;51.090;-1.786;2023-05-09T07:22:26;100856.44;;;13.48;100.00
53262;BME280;39658;51.090;-1.786;2023-05-09T07:24:53;100869.91;;;13.44;100.00
53262;BME280;39658;51.090;-1.786;2023-05-09T07:27:20;100876.16;;;13.43;100.00
53262;BME280;39658;51.090;-1.786;2023-05-09T07:29:48;100901.88;;;13.30;100.00
53262;BME280;39658;51.090;-1.786;2023-05-09T07:32:16;100919.44;;;13.07;100.00
53262;BME280;39658;51.090;-1.786;2023-05-09T07:34:43;100938.66;;;12.98;100.00
53262;BME280;39658;51.090;-1.786;2023-05-09T07:37:10;100945.50;;;13.00;100.00
53262;BME280;39658;51.090;-1.786;2023-05-09T07:39:37;100957.06;;;13.23;100.00
53262;BME280;39658;51.090;-1.786;2023-05-09T07:42:04;100973.69;;;13.25;100.00
53262;BME280;39658;51.090;-1.786;2023-05-09T07:44:30;100996.16;;;13.20;100.00
53262;BME280;39658;51.090;-1.786;2023-05-09T07:46:59;101009.91;;;13.25;100.00
53262;BME280;39658;51.090;-1.786;2023-05-09T07:49:26;101040.13;;;13.09;100.00
53262;BME280;39658;51.090;-1.786;2023-05-09T07:51:53;101062.25;;;13.21;100.00
53262;BME280;39658;51.090;-1.786;2023-05-09T07:54:20;101086.47;;;13.28;100.00
53262;BME280;39658;51.090;-1.786;2023-05-09T07:56:47;101111.78;;;13.45;100.00
53262;BME280;39658;51.090;-1.786;2023-05-09T07:59:13;101140.47;;;13.51;100.00
53262;BME280;39658;51.090;-1.786;2023-05-09T08:01:41;101169.28;;;13.56;100.00
53262;BME280;39658;51.090;-1.786;2023-05-09T08:04:09;101197.69;;;13.54;100.00
53262;BME280;39658;51.090;-1.786;2023-05-09T08:06:36;101237.53;;;13.52;100.00
53262;BME280;39658;51.090;-1.786;2023-05-09T08:09:03;101264.88;;;13.53;100.00
53262;BME280;39658;51.090;-1.786;2023-05-09T08:11:31;101278.66;;;13.45;100.00
53262;BME280;39658;51.090;-1.786;2023-05-09T08:13:58;101285.72;;;13.32;100.00
53262;BME280;39658;51.090;-1.786;2023-05-09T08:16:25;101288.41;;;13.44;100.00
53262;BME280;39658;51.090;-1.786;2023-05-09T08:18:52;101286.91;;;13.66;100.00
53262;BME280;39658;51.090;-1.786;2023-05-09T08:21:21;101302.50;;;13.71;100.00
53262;BME280;39658;51.090;-1.786;2023-05-09T08:23:47;101330.44;;;14.00;100.00
53262;BME280;39658;51.090;-1.786;2023-05-09T08:26:14;101340.06;;;14.14;100.00
53262;BME280;39658;51.090;-1.786;2023-05-09T08:28:41;101381.03;;;13.97;100.00
53262;BME280;39658;51.090;-1.786;2023-05-09T08:31:08;101383.97;;;14.06;100.00
53262;BME280;39658;51.090;-1.786;2023-05-09T08:33:35;101408.28;;;13.87;100.00
53262;BME280;39658;51.090;-1.786;2023-05-09T08:36:02;101398.41;;;13.76;100.00
53262;BME280;39658;51.090;-1.786;2023-05-09T08:38:30;101406.69;;;13.71;100.00
53262;BME280;39658;51.090;-1.786;2023-05-09T08:41:00;101375.09;;;13.81;100.00
53262;BME280;39658;51.090;-1.786;2023-05-09T08:43:27;101382.31;;;13.79;100.00
53262;BME280;39658;51.090;-1.786;2023-05-09T08:45:57;101391.84;;;13.81;100.00
53262;BME280;39658;51.090;-1.786;2023-05-09T08:48:25;101393.34;;;13.98;100.00
53262;BME280;39658;51.090;-1.786;2023-05-09T08:50:54;101394.44;;;14.33;100.00
53262;BME280;39658;51.090;-1.786;2023-05-09T08:53:21;101403.78;;;14.76;100.00
53262;BME280;39658;51.090;-1.786;2023-05-09T08:55:49;101424.28;;;15.11;100.00
53262;BME280;39658;51.090;-1.786;2023-05-09T08:58:18;101473.09;;;14.97;100.00
53262;BME280;39658;51.090;-1.786;2023-05-09T09:00:47;101503.16;;;15.21;100.00
53262;BME280;39658;51.090;-1.786;2023-05-09T09:03:16;101513.31;;;15.52;100.00
53262;BME280;39658;51.090;-1.786;2023-05-09T09:05:43;101561.84;;;15.42;100.00
53262;BME280;39658;51.090;-1.786;2023-05-09T09:08:13;101600.63;;;15.45;100.00
53262;BME280;39658;51.090;-1.786;2023-05-09T09:10:41;101606.53;;;15.24;100.00
53262;BME280;39658;51.090;-1.786;2023-05-09T09:13:13;101601.31;;;14.73;100.00
53262;BME280;39658;51.090;-1.786;2023-05-09T09:15:44;101577.19;;;14.89;100.00
53262;BME280;39658;51.090;-1.786;2023-05-09T09:18:17;101554.75;;;15.06;100.00
53262;BME280;39658;51.090;-1.786;2023-05-09T09:20:50;101529.84;;;15.20;100.00
53262;BME280;39658;51.090;-1.786;2023-05-09T09:23:18;101549.69;;;15.51;100.00
53262;BME280;39658;51.090;-1.786;2023-05-09T09:25:46;101592.44;;;15.96;100.00
53262;BME280;39658;51.090;-1.786;2023-05-09T09:28:14;101623.31;;;16.35;100.00
53262;BME280;39658;51.090;-1.786;2023-05-09T09:30:46;101626.56;;;16.38;100.00
53262;BME280;39658;51.090;-1.786;2023-05-09T09:33:18;101621.78;;;16.77;100.00
53262;BME280;39658;51.090;-1.786;2023-05-09T09:35:47;101631.28;;;16.93;100.00
53262;BME280;39658;51.090;-1.786;2023-05-09T09:38:15;101640.53;;;16.64;100.00
53262;BME280;39658;51.090;-1.786;2023-05-09T09:40:48;101628.75;;;16.44;100.00
53262;BME280;39658;51.090;-1.786;2023-05-09T09:43:16;101624.19;;;16.58;100.00
53262;BME280;39658;51.090;-1.786;2023-05-09T09:45:43;101613.63;;;16.33;100.00
53262;BME280;39658;51.090;-1.786;2023-05-09T09:48:13;101578.19;;;16.44;100.00
53262;BME280;39658;51.090;-1.786;2023-05-09T09:50:40;101604.44;;;16.02;100.00
53262;BME280;39658;51.090;-1.786;2023-05-09T09:53:07;101598.22;;;15.66;100.00
53262;BME280;39658;51.090;-1.786;2023-05-09T09:55:34;101581.63;;;16.11;100.00
53262;BME280;39658;51.090;-1.786;2023-05-09T09:58:01;101579.72;;;16.24;100.00
53262;BME280;39658;51.090;-1.786;2023-05-09T10:00:29;101578.78;;;16.25;100.00
53262;BME280;39658;51.090;-1.786;2023-05-09T10:02:58;101569.72;;;16.50;100.00
53262;BME280;39658;51.090;-1.786;2023-05-09T10:05:26;101577.09;;;16.36;100.00
53262;BME280;39658;51.090;-1.786;2023-05-09T10:07:54;101568.19;;;16.12;100.00
53262;BME280;39658;51.090;-1.786;2023-05-09T10:10:24;101570.03;;;15.88;100.00
53262;BME280;39658;51.090;-1.786;2023-05-09T10:12:53;101559.59;;;15.49;100.00
53262;BME280;39658;51.090;-1.786;2023-05-09T10:15:21;101547.88;;;15.52;100.00
53262;BME280;39658;51.090;-1.786;2023-05-09T10:17:53;101559.06;;;15.44;100.00
53262;BME280;39658;51.090;-1.786;2023-05-09T10:20:20;101542.66;;;15.50;100.00
53262;BME280;39658;51.090;-1.786;2023-05-09T10:22:48;101529.84;;;15.68;100.00
53262;BME280;39658;51.090;-1.786;2023-05-09T10:25:19;101514.59;;;15.70;100.00
53262;BME280;39658;51.090;-1.786;2023-05-09T10:27:46;101528.84;;;15.82;100.00
53262;BME280;39658;51.090;-1.786;2023-05-09T10:30:17;101531.34;;;15.59;100.00
53262;BME280;39658;51.090;-1.786;2023-05-09T10:32:52;101543.44;;;15.52;100.00
53262;BME280;39658;51.090;-1.786;2023-05-09T10:35:23;101521.59;;;15.95;100.00
53262;BME280;39658;51.090;-1.786;2023-05-09T10:37:51;101532.22;;;15.84;100.00
53262;BME280;39658;51.090;-1.786;2023-05-09T10:40:21;101529.88;;;16.15;100.00
53262;BME280;39658;51.090;-1.786;2023-05-09T10:42:48;101531.19;;;16.09;100.00
53262;BME280;39658;51.090;-1.786;2023-05-09T10:45:15;101523.13;;;16.45;100.00
53262;BME280;39658;51.090;-1.786;2023-05-09T10:47:42;101531.00;;;16.46;100.00
53262;BME280;39658;51.090;-1.786;2023-05-09T10:50:11;101538.03;;;16.36;100.00
53262;BME280;39658;51.090;-1.786;2023-05-09T10:53:04;101532.81;;;16.35;100.00
53262;BME280;39658;51.090;-1.786;2023-05-09T10:55:35;101513.47;;;16.44;100.00
53262;BME280;39658;51.090;-1.786;2023-05-09T10:58:17;101506.44;;;16.65;100.00
53262;BME280;39658;51.090;-1.786;2023-05-09T11:00:45;101507.13;;;17.13;100.00
53262;BME280;39658;51.090;-1.786;2023-05-09T11:03:12;101521.81;;;16.96;100.00
53262;BME280;39658;51.090;-1.786;2023-05-09T11:05:40;101537.91;;;16.72;100.00
53262;BME280;39658;51.090;-1.786;2023-05-09T11:08:17;101544.59;;;16.55;100.00
53262;BME280;39658;51.090;-1.786;2023-05-09T11:10:45;101538.09;;;16.23;100.00
53262;BME280;39658;51.090;-1.786;2023-05-09T11:13:11;101516.13;;;16.66;100.00
53262;BME280;39658;51.090;-1.786;2023-05-09T11:15:49;101508.00;;;17.02;100.00
53262;BME280;39658;51.090;-1.786;2023-05-09T11:18:16;101532.59;;;16.83;100.00
53262;BME280;39658;51.090;-1.786;2023-05-09T11:20:47;101533.94;;;17.00;100.00
53262;BME280;39658;51.090;-1.786;2023-05-09T11:23:15;101524.94;;;17.01;100.00
53262;BME280;39658;51.090;-1.786;2023-05-09T11:25:45;101524.59;;;16.72;100.00
53262;BME280;39658;51.090;-1.786;2023-05-09T11:28:25;101526.31;;;16.61;100.00
53262;BME280;39658;51.090;-1.786;2023-05-09T11:30:53;101522.44;;;16.77;100.00
53262;BME280;39658;51.090;-1.786;2023-05-09T11:33:23;101527.38;;;17.04;100.00
53262;BME280;39658;51.090;-1.786;2023-05-09T11:36:16;101517.09;;;16.99;100.00
53262;BME280;39658;51.090;-1.786;2023-05-09T11:38:44;101507.53;;;17.40;100.00
53262;BME280;39658;51.090;-1.786;2023-05-09T11:41:12;101511.31;;;17.38;100.00
53262;BME280;39658;51.090;-1.786;2023-05-09T11:43:39;101503.63;;;17.45;100.00
53262;BME280;39658;51.090;-1.786;2023-05-09T11:46:06;101502.34;;;16.95;100.00
53262;BME280;39658;51.090;-1.786;2023-05-09T11:48:37;101507.16;;;16.56;100.00
53262;BME280;39658;51.090;-1.786;2023-05-09T11:51:04;101488.00;;;17.19;100.00
53262;BME280;39658;51.090;-1.786;2023-05-09T11:53:32;101486.69;;;17.46;100.00
53262;BME280;39658;51.090;-1.786;2023-05-09T11:56:01;101501.94;;;17.76;100.00
53262;BME280;39658;51.090;-1.786;2023-05-09T11:58:28;101500.94;;;17.56;100.00
53262;BME280;39658;51.090;-1.786;2023-05-09T12:00:56;101488.66;;;17.86;100.00
53262;BME280;39658;51.090;-1.786;2023-05-09T12:03:23;101486.34;;;17.39;100.00
53262;BME280;39658;51.090;-1.786;2023-05-09T12:05:51;101489.44;;;17.76;100.00
53262;BME280;39658;51.090;-1.786;2023-05-09T12:08:20;101485.81;;;17.77;100.00
53262;BME280;39658;51.090;-1.786;2023-05-09T12:10:48;101471.44;;;17.36;100.00
53262;BME280;39658;51.090;-1.786;2023-05-09T12:13:15;101478.47;;;17.37;100.00
53262;BME280;39658;51.090;-1.786;2023-05-09T12:15:43;101481.31;;;17.78;100.00
53262;BME280;39658;51.090;-1.786;2023-05-09T12:18:10;101468.09;;;17.76;100.00
53262;BME280;39658;51.090;-1.786;2023-05-09T12:20:42;101462.47;;;17.70;100.00
53262;BME280;39658;51.090;-1.786;2023-05-09T12:23:10;101464.28;;;17.37;100.00
53262;BME280;39658;51.090;-1.786;2023-05-09T12:25:38;101469.50;;;17.38;100.00
53262;BME280;39658;51.090;-1.786;2023-05-09T12:28:07;101468.44;;;17.30;100.00
53262;BME280;39658;51.090;-1.786;2023-05-09T12:30:34;101466.16;;;17.25;100.00
53262;BME280;39658;51.090;-1.786;2023-05-09T12:33:01;101460.00;;;17.25;100.00
53262;BME280;39658;51.090;-1.786;2023-05-09T12:35:28;101460.53;;;17.07;100.00